createdAt,value
2023-01-21T00:01:10.908Z,102635.28
2023-01-21T00:03:38.709Z,102639.63
2023-01-21T00:06:07.161Z,102638.72
2023-01-21T00:08:34.789Z,102641.34
2023-01-21T00:11:15.843Z,102628.22
2023-01-21T00:13:44.684Z,102637.00
2023-01-21T00:16:13.409Z,102638.72
2023-01-21T00:18:42.183Z,102645.72
2023-01-21T00:21:10.322Z,102641.34
2023-01-21T00:23:37.985Z,102631.78
2023-01-21T00:26:07.652Z,102634.41
2023-01-21T00:28:36.670Z,102630.94
2023-01-21T00:31:07.269Z,102629.19
2023-01-21T00:33:36.610Z,102627.44
2023-01-21T00:36:07.684Z,102631.84
2023-01-21T00:38:35.853Z,102628.34
2023-01-21T00:41:08.908Z,102628.31
2023-01-21T00:43:37.111Z,102631.78
2023-01-21T00:46:05.160Z,102639.59
2023-01-21T00:48:33.224Z,102643.94
2023-01-21T00:51:01.217Z,102644.78
2023-01-21T00:53:31.274Z,102650.03
2023-01-21T00:56:03.854Z,102653.47
2023-01-21T00:58:32.313Z,102655.22
2023-01-21T01:01:11.702Z,102653.41
2023-01-21T01:03:40.567Z,102647.28
2023-01-21T01:06:14.702Z,102647.25
2023-01-21T01:08:43.570Z,102646.34
2023-01-21T01:11:12.562Z,102647.22
2023-01-21T01:13:40.941Z,102650.69
2023-01-21T01:16:10.774Z,102646.28
2023-01-21T01:18:39.029Z,102641.00
2023-01-21T01:21:11.056Z,102640.09
2023-01-21T01:23:38.760Z,102654.03
2023-01-21T01:26:08.439Z,102646.16
2023-01-21T01:28:36.080Z,102645.22
2023-01-21T01:31:09.724Z,102646.91
2023-01-21T01:33:37.602Z,102647.75
2023-01-21T01:36:14.207Z,102643.31
2023-01-21T01:38:42.275Z,102643.28
2023-01-21T01:41:16.720Z,102646.81
2023-01-21T01:43:55.022Z,102649.41
2023-01-21T01:46:24.729Z,102641.53
2023-01-21T01:48:59.255Z,102642.41
2023-01-21T01:51:42.708Z,102648.56
2023-01-21T01:54:15.005Z,102639.88
2023-01-21T01:56:46.789Z,102650.38
2023-01-21T01:59:15.199Z,102658.25
2023-01-21T02:01:42.833Z,102668.75
2023-01-21T02:04:17.920Z,102662.59
2023-01-21T02:06:47.993Z,102671.34
2023-01-21T02:09:15.788Z,102662.56
2023-01-21T02:11:43.447Z,102664.31
2023-01-21T02:14:11.159Z,102668.66
2023-01-21T02:17:01.552Z,102664.28
2023-01-21T02:19:53.413Z,102659.00
2023-01-21T02:22:33.798Z,102660.75
2023-01-21T02:25:34.489Z,102659.03
2023-01-21T02:28:08.046Z,102658.16
2023-01-21T02:31:03.749Z,102652.94
2023-01-21T02:33:43.376Z,102649.44
2023-01-21T02:36:17.640Z,102658.22
2023-01-21T02:38:49.510Z,102660.84
2023-01-21T02:41:38.261Z,102662.59
2023-01-21T02:44:23.890Z,102661.69
2023-01-21T02:46:59.327Z,102666.09
2023-01-21T02:49:51.997Z,102659.97
2023-01-21T02:52:22.890Z,102659.09
2023-01-21T02:54:53.598Z,102661.72
2023-01-21T02:57:27.581Z,102653.00
2023-01-21T02:59:56.509Z,102663.50
2023-01-21T03:02:23.991Z,102660.91
2023-01-21T03:05:23.970Z,102657.41
2023-01-21T03:08:03.349Z,102662.69
2023-01-21T03:10:47.536Z,102674.91
2023-01-21T03:13:47.381Z,102663.53
2023-01-21T03:16:37.075Z,102664.38
2023-01-21T03:19:06.878Z,102657.41
2023-01-21T03:21:35.601Z,102658.25
2023-01-21T03:24:04.515Z,102660.84
2023-01-21T03:26:44.419Z,102668.66
2023-01-21T03:29:20.733Z,102669.47
2023-01-21T03:31:53.966Z,102679.94
2023-01-21T03:34:24.508Z,102679.91
2023-01-21T03:36:58.042Z,102677.25
2023-01-21T03:39:31.664Z,102685.09
2023-01-21T03:41:59.518Z,102686.81
2023-01-21T03:44:27.181Z,102688.53
2023-01-21T03:47:03.510Z,102683.28
2023-01-21T03:49:38.284Z,102680.66
2023-01-21T03:52:07.070Z,102679.78
2023-01-21T03:54:34.923Z,102685.03
2023-01-21T03:57:02.496Z,102686.84
2023-01-21T03:59:30.326Z,102682.44
2023-01-21T04:01:57.977Z,102680.69
2023-01-21T04:04:25.530Z,102678.91
2023-01-21T04:06:53.151Z,102683.22
2023-01-21T04:09:20.718Z,102683.22
2023-01-21T04:11:48.322Z,102691.06
2023-01-21T04:14:15.900Z,102692.81
2023-01-21T04:16:43.576Z,102698.91
2023-01-21T04:19:11.136Z,102697.13
2023-01-21T04:21:38.763Z,102698.81
2023-01-21T04:24:06.828Z,102704.06
2023-01-21T04:26:34.398Z,102708.41
2023-01-21T04:29:02.864Z,102706.66
2023-01-21T04:31:30.511Z,102700.47
2023-01-21T04:33:58.166Z,102708.31
2023-01-21T04:36:25.812Z,102705.69
2023-01-21T04:38:53.421Z,102698.63
2023-01-21T04:41:22.078Z,102703.84
2023-01-21T04:43:51.099Z,102697.69
2023-01-21T04:46:18.854Z,102698.56
2023-01-21T04:48:46.494Z,102698.56
2023-01-21T04:51:14.462Z,102697.66
2023-01-21T04:53:42.102Z,102694.13
2023-01-21T04:56:09.766Z,102694.09
2023-01-21T04:58:37.471Z,102695.81
2023-01-21T05:01:05.191Z,102693.16
2023-01-21T05:03:32.874Z,102687.84
2023-01-21T05:06:00.435Z,102688.72
2023-01-21T05:08:28.066Z,102698.31
2023-01-21T05:10:55.695Z,102694.78
2023-01-21T05:13:23.314Z,102696.50
2023-01-21T05:15:51.154Z,102695.59
2023-01-21T05:18:18.926Z,102692.03
2023-01-21T05:20:46.515Z,102696.38
2023-01-21T05:23:14.097Z,102697.25
2023-01-21T05:25:41.734Z,102693.72
2023-01-21T05:28:09.420Z,102687.59
2023-01-21T05:30:39.978Z,102688.44
2023-01-21T05:33:08.027Z,102691.06
2023-01-21T05:35:35.999Z,102683.19
2023-01-21T05:38:03.575Z,102691.91
2023-01-21T05:40:31.389Z,102690.13
2023-01-21T05:42:58.995Z,102690.09
2023-01-21T05:45:26.647Z,102686.56
2023-01-21T05:47:54.338Z,102687.41
2023-01-21T05:50:21.915Z,102686.50
2023-01-21T05:52:49.487Z,102684.75
2023-01-21T05:55:17.161Z,102693.47
2023-01-21T05:57:44.890Z,102684.66
2023-01-21T06:00:13.098Z,102689.88
2023-01-21T06:02:40.769Z,102698.59
2023-01-21T06:05:08.537Z,102706.44
2023-01-21T06:07:36.182Z,102697.66
2023-01-21T06:10:04.461Z,102694.97
2023-01-21T06:12:32.080Z,102696.69
2023-01-21T06:15:00.542Z,102699.31
2023-01-21T06:17:28.172Z,102697.56
2023-01-21T06:19:55.779Z,102698.44
2023-01-21T06:22:23.436Z,102705.41
2023-01-21T06:24:50.972Z,102709.78
2023-01-21T06:27:18.659Z,102719.41
2023-01-21T06:29:46.297Z,102716.75
2023-01-21T06:32:13.882Z,102723.75
2023-01-21T06:34:41.460Z,102723.69
2023-01-21T06:37:09.105Z,102729.78
2023-01-21T06:39:36.767Z,102728.03
2023-01-21T06:42:04.984Z,102727.13
2023-01-21T06:44:32.531Z,102738.50
2023-01-21T06:47:01.155Z,102738.47
2023-01-21T06:49:29.308Z,102742.81
2023-01-21T06:51:56.877Z,102741.00
2023-01-21T06:54:24.468Z,102739.25
2023-01-21T06:56:53.451Z,102740.09
2023-01-21T06:59:21.077Z,102736.56
2023-01-21T07:01:48.732Z,102738.31
2023-01-21T07:04:16.393Z,102738.31
2023-01-21T07:06:44.045Z,102740.06
2023-01-21T07:09:11.638Z,102738.31
2023-01-21T07:11:39.272Z,102736.56
2023-01-21T07:14:06.867Z,102738.31
2023-01-21T07:16:34.462Z,102739.19
2023-01-21T07:19:02.188Z,102735.59
2023-01-21T07:21:29.763Z,102735.59
2023-01-21T07:23:57.401Z,102736.41
2023-01-21T07:26:25.010Z,102738.13
2023-01-21T07:28:52.657Z,102733.69
2023-01-21T07:31:20.386Z,102737.13
2023-01-21T07:33:48.069Z,102736.22
2023-01-21T07:36:15.684Z,102744.06
2023-01-21T07:38:43.285Z,102744.03
2023-01-21T07:41:10.877Z,102742.25
2023-01-21T07:43:38.429Z,102746.59
2023-01-21T07:46:06.200Z,102745.75
2023-01-21T07:48:37.066Z,102750.97
2023-01-21T07:51:04.814Z,102748.34
2023-01-21T07:53:32.391Z,102753.56
2023-01-21T07:56:04.998Z,102756.13
2023-01-21T07:58:32.969Z,102755.25
2023-01-21T08:01:04.696Z,102757.81
2023-01-21T08:03:32.263Z,102758.69
2023-01-21T08:05:59.801Z,102763.03
2023-01-21T08:08:27.783Z,102762.13
2023-01-21T08:10:56.282Z,102763.00
2023-01-21T08:13:24.669Z,102763.84
2023-01-21T08:15:54.372Z,102769.94
2023-01-21T08:18:23.123Z,102767.28
2023-01-21T08:20:58.267Z,102780.44
2023-01-21T08:23:26.756Z,102783.94
2023-01-21T08:25:54.789Z,102783.91
2023-01-21T08:28:23.110Z,102781.28
2023-01-21T08:30:50.754Z,102790.91
2023-01-21T08:33:18.368Z,102792.63
2023-01-21T08:35:45.932Z,102795.25
2023-01-21T08:38:13.558Z,102794.34
2023-01-21T08:40:41.150Z,102795.19
2023-01-21T08:43:09.272Z,102790.75
2023-01-21T08:45:36.855Z,102795.13
2023-01-21T08:48:04.562Z,102797.75
2023-01-21T08:50:32.139Z,102802.13
2023-01-21T08:52:59.816Z,102806.47
2023-01-21T08:55:27.432Z,102799.41
2023-01-21T08:57:55.913Z,102806.38
2023-01-21T09:00:24.048Z,102805.50
2023-01-21T09:02:51.913Z,102806.31
2023-01-21T09:05:20.165Z,102811.53
2023-01-21T09:07:47.792Z,102811.53
2023-01-21T09:10:35.686Z,102815.03
2023-01-21T09:13:10.564Z,102812.34
2023-01-21T09:15:40.094Z,102811.44
2023-01-21T09:18:07.826Z,102814.06
2023-01-21T09:20:36.122Z,102818.44
2023-01-21T09:23:24.400Z,102817.50
2023-01-21T09:26:29.198Z,102817.47
2023-01-21T09:29:01.227Z,102811.31
2023-01-21T09:31:31.844Z,102809.50
2023-01-21T09:34:03.740Z,102809.47
2023-01-21T09:36:33.742Z,102811.16
2023-01-21T09:39:01.541Z,102818.16
2023-01-21T09:41:50.179Z,102813.75
2023-01-21T09:44:39.995Z,102813.69
2023-01-21T09:47:26.241Z,102816.28
2023-01-21T09:50:05.551Z,102818.00
2023-01-21T09:52:49.687Z,102817.97
2023-01-21T09:55:22.846Z,102816.16
2023-01-21T09:57:53.143Z,102817.84
2023-01-21T10:00:23.673Z,102820.47
2023-01-21T10:03:06.147Z,102816.00
2023-01-21T10:05:40.112Z,102817.72
2023-01-21T10:08:10.518Z,102818.56
2023-01-21T10:10:51.726Z,102819.41
2023-01-21T10:13:44.658Z,102828.09
2023-01-21T10:16:33.082Z,102820.13
2023-01-21T10:19:03.717Z,102829.69
2023-01-21T10:21:37.509Z,102832.28
2023-01-21T10:24:15.390Z,102834.00
2023-01-21T10:26:47.233Z,102828.59
2023-01-21T10:29:18.121Z,102834.72
2023-01-21T10:31:55.162Z,102838.13
2023-01-21T10:34:22.758Z,102838.09
2023-01-21T10:37:11.654Z,102837.19
2023-01-21T10:39:57.307Z,102836.25
2023-01-21T10:42:24.805Z,102839.72
2023-01-21T10:45:20.354Z,102836.16
2023-01-21T10:47:58.008Z,102838.72
2023-01-21T10:51:16.589Z,102843.09
2023-01-21T10:54:21.518Z,102842.16
2023-01-21T10:57:13.282Z,102838.53
2023-01-21T10:59:42.521Z,102840.19
2023-01-21T11:02:10.279Z,102838.34
2023-01-21T11:04:41.047Z,102845.22
2023-01-21T11:07:12.789Z,102840.66
2023-01-21T11:09:45.452Z,102838.69
2023-01-21T11:12:18.095Z,102838.53
2023-01-21T11:14:58.362Z,102845.34
2023-01-21T11:17:40.948Z,102845.06
2023-01-21T11:20:40.215Z,102846.56
2023-01-21T11:23:33.101Z,102843.69
2023-01-21T11:26:05.539Z,102841.75
2023-01-21T11:28:33.278Z,102835.50
2023-01-21T11:31:13.496Z,102832.69
2023-01-21T11:33:43.541Z,102835.22
2023-01-21T11:36:12.834Z,102829.88
2023-01-21T11:38:40.977Z,102828.13
2023-01-21T11:41:21.438Z,102834.22
2023-01-21T11:43:54.608Z,102829.81
2023-01-21T11:46:38.043Z,102833.28
2023-01-21T11:49:08.364Z,102829.72
2023-01-21T11:51:40.999Z,102827.06
2023-01-21T11:54:11.456Z,102822.53
2023-01-21T11:56:40.461Z,102812.69
2023-01-21T11:59:20.296Z,102809.06
2023-01-21T12:02:08.198Z,102814.19
2023-01-21T12:04:37.214Z,102811.34
2023-01-21T12:07:05.579Z,102806.75
2023-01-21T12:09:33.252Z,102805.78
2023-01-21T12:12:07.727Z,102805.53
2023-01-21T12:15:14.624Z,102803.59
2023-01-21T12:17:55.892Z,102803.31
2023-01-21T12:20:28.255Z,102805.78
2023-01-21T12:23:02.902Z,102803.84
2023-01-21T12:25:41.641Z,102796.66
2023-01-21T12:28:23.248Z,102805.28
2023-01-21T12:31:09.204Z,102800.75
2023-01-21T12:33:44.047Z,102797.91
2023-01-21T12:36:33.297Z,102794.16
2023-01-21T12:39:09.886Z,102794.03
2023-01-21T12:41:40.765Z,102786.00
2023-01-21T12:44:14.126Z,102799.16
2023-01-21T12:46:46.407Z,102784.03
2023-01-21T12:49:21.764Z,102787.47
2023-01-21T12:52:16.735Z,102786.63
2023-01-21T12:54:50.636Z,102786.53
2023-01-21T12:58:00.310Z,102782.06
2023-01-21T13:00:33.863Z,102786.53
2023-01-21T13:03:20.990Z,102780.28
2023-01-21T13:06:02.772Z,102788.22
2023-01-21T13:08:33.368Z,102780.19
2023-01-21T13:11:16.226Z,102776.66
2023-01-21T13:14:09.710Z,102777.50
2023-01-21T13:17:06.536Z,102773.09
2023-01-21T13:19:34.153Z,102772.31
2023-01-21T13:22:14.769Z,102774.03
2023-01-21T13:25:09.233Z,102760.84
2023-01-21T13:27:49.449Z,102766.13
2023-01-21T13:30:26.177Z,102753.84
2023-01-21T13:33:02.729Z,102757.47
2023-01-21T13:36:06.324Z,102752.25
2023-01-21T13:39:11.510Z,102745.25
2023-01-21T13:41:41.936Z,102744.47
2023-01-21T13:44:33.258Z,102743.59
2023-01-21T13:47:30.198Z,102740.13
2023-01-21T13:50:06.786Z,102741.91
2023-01-21T13:52:56.868Z,102734.03
2023-01-21T13:55:30.185Z,102739.34
2023-01-21T13:58:10.800Z,102737.53
2023-01-21T14:00:46.848Z,102741.03
2023-01-21T14:03:29.010Z,102752.38
2023-01-21T14:06:05.654Z,102750.56
2023-01-21T14:08:48.705Z,102748.81
2023-01-21T14:11:20.183Z,102750.53
2023-01-21T14:14:02.552Z,102752.31
2023-01-21T14:16:59.625Z,102753.97
2023-01-21T14:19:56.494Z,102747.72
2023-01-21T14:22:55.006Z,102748.47
2023-01-21T14:25:40.639Z,102750.13
2023-01-21T14:28:29.437Z,102745.63
2023-01-21T14:31:35.615Z,102746.47
2023-01-21T14:34:24.119Z,102733.09
2023-01-21T14:37:13.379Z,102738.19
2023-01-21T14:40:02.144Z,102742.38
2023-01-21T14:42:49.446Z,102742.16
2023-01-21T14:45:22.619Z,102736.78
2023-01-21T14:47:57.925Z,102740.19
2023-01-21T14:50:47.286Z,102737.44
2023-01-21T14:53:23.859Z,102741.75
2023-01-21T14:56:21.502Z,102739.09
2023-01-21T14:59:08.554Z,102744.13
2023-01-21T15:01:43.750Z,102741.06
2023-01-21T15:04:52.264Z,102751.34
2023-01-21T15:07:21.839Z,102750.22
2023-01-21T15:09:54.099Z,102752.84
2023-01-21T15:12:30.110Z,102751.03
2023-01-21T15:15:00.578Z,102752.88
2023-01-21T15:18:00.709Z,102751.47
2023-01-21T15:20:43.160Z,102751.69
2023-01-21T15:23:29.303Z,102751.03
2023-01-21T15:26:32.862Z,102746.97
2023-01-21T15:29:32.839Z,102743.69
2023-01-21T15:32:18.818Z,102740.38
2023-01-21T15:34:50.911Z,102745.84
2023-01-21T15:37:22.692Z,102745.13
2023-01-21T15:39:53.885Z,102752.41
2023-01-21T15:42:50.044Z,102744.72
2023-01-21T15:45:48.255Z,102752.78
2023-01-21T15:48:41.768Z,102755.47
2023-01-21T15:51:24.751Z,102759.09
2023-01-21T15:54:27.562Z,102760.06
2023-01-21T15:57:09.803Z,102758.47
2023-01-21T16:00:11.305Z,102751.53
2023-01-21T16:02:48.597Z,102750.72
2023-01-21T16:05:28.433Z,102750.88
2023-01-21T16:08:12.140Z,102756.28
2023-01-21T16:11:01.112Z,102751.03
2023-01-21T16:13:47.161Z,102755.50
2023-01-21T16:16:48.012Z,102752.97
2023-01-21T16:19:20.525Z,102749.47
2023-01-21T16:21:54.311Z,102763.66
2023-01-21T16:24:26.644Z,102755.78
2023-01-21T16:26:54.401Z,102754.00
2023-01-21T16:29:22.037Z,102750.50
2023-01-21T16:31:52.216Z,102743.41
2023-01-21T16:34:32.095Z,102748.78
2023-01-21T16:36:59.702Z,102739.97
2023-01-21T16:39:27.316Z,102750.50
2023-01-21T16:42:06.867Z,102749.56
2023-01-21T16:44:35.809Z,102751.38
2023-01-21T16:47:03.666Z,102752.28
2023-01-21T16:49:31.386Z,102761.97
2023-01-21T16:52:01.540Z,102768.13
2023-01-21T16:54:32.258Z,102763.75
2023-01-21T16:57:02.564Z,102761.16
2023-01-21T16:59:39.160Z,102756.75
2023-01-21T17:02:28.158Z,102758.50
2023-01-21T17:04:58.048Z,102758.44
2023-01-21T17:07:31.555Z,102747.81
2023-01-21T17:10:07.101Z,102753.91
2023-01-21T17:12:36.432Z,102754.88
2023-01-21T17:15:23.359Z,102753.16
2023-01-21T17:17:56.452Z,102754.88
2023-01-21T17:20:47.600Z,102756.66
2023-01-21T17:23:18.511Z,102752.22
2023-01-21T17:25:54.988Z,102751.38
2023-01-21T17:28:37.980Z,102742.56
2023-01-21T17:31:32.014Z,102760.13
2023-01-21T17:34:17.369Z,102750.41
2023-01-21T17:36:48.063Z,102754.78
2023-01-21T17:39:50.404Z,102753.06
2023-01-21T17:42:21.294Z,102757.44
2023-01-21T17:44:57.790Z,102757.50
2023-01-21T17:47:30.078Z,102755.78
2023-01-21T17:50:22.799Z,102753.91
2023-01-21T17:53:01.908Z,102753.97
2023-01-21T17:55:33.892Z,102751.44
2023-01-21T17:58:06.989Z,102748.88
2023-01-21T18:00:44.353Z,102741.03
2023-01-21T18:03:12.811Z,102743.81
2023-01-21T18:05:41.764Z,102739.41
2023-01-21T18:08:14.540Z,102739.41
2023-01-21T18:10:43.069Z,102739.41
2023-01-21T18:13:15.901Z,102735.91
2023-01-21T18:15:44.382Z,102742.94
2023-01-21T18:18:21.315Z,102749.13
2023-01-21T18:20:49.018Z,102743.00
2023-01-21T18:23:18.279Z,102747.44
2023-01-21T18:25:48.971Z,102744.78
2023-01-21T18:28:25.849Z,102742.06
2023-01-21T18:30:57.954Z,102742.94
2023-01-21T18:33:25.764Z,102745.56
2023-01-21T18:35:53.809Z,102743.81
2023-01-21T18:38:27.599Z,102734.09
2023-01-21T18:40:56.853Z,102737.50
2023-01-21T18:43:27.504Z,102726.81
2023-01-21T18:45:55.140Z,102741.69
2023-01-21T18:48:29.611Z,102743.41
2023-01-21T18:50:57.360Z,102744.28
2023-01-21T18:53:25.613Z,102749.53
2023-01-21T18:55:56.415Z,102750.47
2023-01-21T18:58:24.058Z,102743.38
2023-01-21T19:00:51.659Z,102744.25
2023-01-21T19:03:19.384Z,102743.28
2023-01-21T19:05:47.774Z,102748.59
2023-01-21T19:08:22.019Z,102738.84
2023-01-21T19:10:49.613Z,102738.78
2023-01-21T19:13:17.623Z,102746.69
2023-01-21T19:15:46.824Z,102739.63
2023-01-21T19:18:16.375Z,102745.78
2023-01-21T19:20:44.544Z,102746.63
2023-01-21T19:23:17.014Z,102753.63
2023-01-21T19:25:56.122Z,102751.81
2023-01-21T19:28:25.315Z,102757.03
2023-01-21T19:30:58.156Z,102761.44
2023-01-21T19:33:26.175Z,102763.19
2023-01-21T19:36:04.792Z,102758.75
2023-01-21T19:38:32.437Z,102756.03
2023-01-21T19:40:59.980Z,102754.31
2023-01-21T19:43:28.210Z,102757.00
2023-01-21T19:45:58.098Z,102752.56
2023-01-21T19:48:28.058Z,102749.97
2023-01-21T19:50:55.737Z,102750.88
2023-01-21T19:53:23.879Z,102754.47
2023-01-21T19:55:51.655Z,102748.41
2023-01-21T19:58:25.217Z,102746.72
2023-01-21T20:00:56.225Z,102736.13
2023-01-21T20:03:26.817Z,102737.06
2023-01-21T20:06:04.235Z,102729.09
2023-01-21T20:08:32.523Z,102728.94
2023-01-21T20:11:00.233Z,102728.91
2023-01-21T20:13:31.413Z,102726.28
2023-01-21T20:16:03.777Z,102728.94
2023-01-21T20:18:34.557Z,102731.59
2023-01-21T20:21:02.090Z,102739.53
2023-01-21T20:23:32.671Z,102741.31
2023-01-21T20:26:00.974Z,102736.88
2023-01-21T20:28:38.670Z,102736.03
2023-01-21T20:31:08.238Z,102729.00
2023-01-21T20:33:36.580Z,102734.31
2023-01-21T20:36:14.742Z,102726.44
2023-01-21T20:38:42.866Z,102738.00
2023-01-21T20:41:12.338Z,102730.94
2023-01-21T20:43:40.692Z,102742.34
2023-01-21T20:46:18.498Z,102727.31
2023-01-21T20:48:46.732Z,102731.72
2023-01-21T20:51:14.353Z,102733.47
2023-01-21T20:53:42.092Z,102729.88
2023-01-21T20:56:25.975Z,102734.22
2023-01-21T20:58:53.879Z,102733.25
2023-01-21T21:01:24.855Z,102724.44
2023-01-21T21:03:53.077Z,102720.00
2023-01-21T21:06:23.611Z,102720.00
2023-01-21T21:08:51.866Z,102716.50
2023-01-21T21:11:20.312Z,102722.69
2023-01-21T21:13:52.133Z,102715.66
2023-01-21T21:16:30.363Z,102720.09
2023-01-21T21:18:59.503Z,102708.69
2023-01-21T21:21:27.117Z,102712.25
2023-01-21T21:23:54.730Z,102710.41
2023-01-21T21:26:29.336Z,102699.81
2023-01-21T21:29:00.134Z,102699.78
2023-01-21T21:31:32.038Z,102705.91
2023-01-21T21:33:59.797Z,102708.56
2023-01-21T21:36:27.449Z,102708.44
2023-01-21T21:38:56.046Z,102712.75
2023-01-21T21:41:44.542Z,102700.38
2023-01-21T21:44:12.923Z,102690.69
2023-01-21T21:46:59.527Z,102693.41
2023-01-21T21:49:28.338Z,102693.50
2023-01-21T21:51:56.976Z,102697.88
2023-01-21T21:54:24.579Z,102703.19
2023-01-21T21:56:52.325Z,102693.44
2023-01-21T21:59:20.020Z,102699.56
2023-01-21T22:01:47.631Z,102695.13
2023-01-21T22:04:15.389Z,102693.31
2023-01-21T22:06:43.199Z,102695.03
2023-01-21T22:09:10.820Z,102698.53
2023-01-21T22:11:38.457Z,102704.69
2023-01-21T22:14:06.303Z,102700.19
2023-01-21T22:16:34.470Z,102698.38
2023-01-21T22:19:02.153Z,102693.91
2023-01-21T22:21:32.888Z,102692.91
2023-01-21T22:24:02.900Z,102698.09
2023-01-21T22:26:30.716Z,102699.88
2023-01-21T22:28:58.267Z,102699.75
2023-01-21T22:31:28.792Z,102694.50
2023-01-21T22:33:57.765Z,102696.28
2023-01-21T22:36:28.426Z,102685.69
2023-01-21T22:38:56.273Z,102683.84
2023-01-21T22:41:25.092Z,102685.56
2023-01-21T22:43:53.512Z,102682.97
2023-01-21T22:46:24.572Z,102696.28
2023-01-21T22:48:53.947Z,102698.97
2023-01-21T22:51:23.171Z,102682.28
2023-01-21T22:53:51.284Z,102700.72
2023-01-21T22:56:23.444Z,102690.91
2023-01-21T22:58:53.120Z,102694.47
2023-01-21T23:01:25.117Z,102684.63
2023-01-21T23:03:52.983Z,102687.19
2023-01-21T23:06:20.756Z,102678.44
2023-01-21T23:08:48.768Z,102678.44
2023-01-21T23:11:17.852Z,102674.03
2023-01-21T23:13:46.272Z,102674.03
2023-01-21T23:16:16.384Z,102675.91
2023-01-21T23:18:44.169Z,102671.56
2023-01-21T23:21:18.597Z,102665.44
2023-01-21T23:23:46.310Z,102669.00
2023-01-21T23:26:14.336Z,102669.06
2023-01-21T23:28:43.133Z,102668.16
2023-01-21T23:31:14.207Z,102660.13
2023-01-21T23:33:42.361Z,102664.56
2023-01-21T23:36:13.083Z,102654.03
2023-01-21T23:38:41.555Z,102647.84
2023-01-21T23:41:11.406Z,102634.50
2023-01-21T23:43:39.877Z,102642.41
2023-01-21T23:46:11.821Z,102637.97
2023-01-21T23:48:39.789Z,102640.53
2023-01-21T23:51:11.120Z,102636.91
2023-01-21T23:53:38.823Z,102635.03
2023-01-21T23:56:24.282Z,102633.22
2023-01-21T23:58:52.563Z,102633.09
